sensor_id;sensor_type;location;lat;lon;timestamp;temperature;humidity
10692;DHT22;5396;50.950;6.988;2022-07-29T00:00:41;19.50;99.90
10692;DHT22;5396;50.950;6.988;2022-07-29T00:03:10;19.50;99.90
10692;DHT22;5396;50.950;6.988;2022-07-29T00:05:35;19.50;99.90
10692;DHT22;5396;50.950;6.988;2022-07-29T00:08:01;19.50;99.90
10692;DHT22;5396;50.950;6.988;2022-07-29T00:10:27;19.50;99.90
10692;DHT22;5396;50.950;6.988;2022-07-29T00:12:53;19.60;99.90
10692;DHT22;5396;50.950;6.988;2022-07-29T00:15:18;19.70;99.90
10692;DHT22;5396;50.950;6.988;2022-07-29T00:17:44;19.70;99.90
10692;DHT22;5396;50.950;6.988;2022-07-29T00:20:10;19.70;99.90
10692;DHT22;5396;50.950;6.988;2022-07-29T00:22:39;19.80;99.90
10692;DHT22;5396;50.950;6.988;2022-07-29T00:25:05;19.80;99.90
10692;DHT22;5396;50.950;6.988;2022-07-29T00:27:31;19.90;99.90
10692;DHT22;5396;50.950;6.988;2022-07-29T00:29:57;19.80;99.90
10692;DHT22;5396;50.950;6.988;2022-07-29T00:32:22;19.80;99.90
10692;DHT22;5396;50.950;6.988;2022-07-29T00:34:48;19.80;99.90
10692;DHT22;5396;50.950;6.988;2022-07-29T00:37:34;19.80;99.90
10692;DHT22;5396;50.950;6.988;2022-07-29T00:39:59;19.70;99.90
10692;DHT22;5396;50.950;6.988;2022-07-29T00:42:25;19.70;99.90
10692;DHT22;5396;50.950;6.988;2022-07-29T00:44:51;19.60;99.90
10692;DHT22;5396;50.950;6.988;2022-07-29T00:47:17;19.60;99.90
10692;DHT22;5396;50.950;6.988;2022-07-29T00:49:42;19.70;99.90
10692;DHT22;5396;50.950;6.988;2022-07-29T00:52:09;19.70;99.90
10692;DHT22;5396;50.950;6.988;2022-07-29T00:54:35;19.70;99.90
10692;DHT22;5396;50.950;6.988;2022-07-29T00:57:01;19.70;99.90
10692;DHT22;5396;50.950;6.988;2022-07-29T00:59:27;19.70;99.90
10692;DHT22;5396;50.950;6.988;2022-07-29T01:01:54;19.60;99.90
10692;DHT22;5396;50.950;6.988;2022-07-29T01:04:21;19.60;99.90
10692;DHT22;5396;50.950;6.988;2022-07-29T01:06:50;19.50;99.90
10692;DHT22;5396;50.950;6.988;2022-07-29T01:09:18;19.50;99.90
10692;DHT22;5396;50.950;6.988;2022-07-29T01:11:46;19.40;99.90
10692;DHT22;5396;50.950;6.988;2022-07-29T01:14:14;19.40;99.90
10692;DHT22;5396;50.950;6.988;2022-07-29T01:16:51;19.40;99.90
10692;DHT22;5396;50.950;6.988;2022-07-29T01:19:40;19.40;99.90
10692;DHT22;5396;50.950;6.988;2022-07-29T01:25:05;19.30;99.90
10692;DHT22;5396;50.950;6.988;2022-07-29T01:30:09;19.30;99.90
10692;DHT22;5396;50.950;6.988;2022-07-29T01:32:36;19.20;99.90
10692;DHT22;5396;50.950;6.988;2022-07-29T01:35:10;19.20;99.90
10692;DHT22;5396;50.950;6.988;2022-07-29T01:37:48;19.30;99.90
10692;DHT22;5396;50.950;6.988;2022-07-29T01:40:31;19.20;99.90
10692;DHT22;5396;50.950;6.988;2022-07-29T01:43:12;19.20;99.90
10692;DHT22;5396;50.950;6.988;2022-07-29T01:46:01;19.20;99.90
10692;DHT22;5396;50.950;6.988;2022-07-29T01:48:36;19.20;99.90
10692;DHT22;5396;50.950;6.988;2022-07-29T01:51:07;19.20;99.90
10692;DHT22;5396;50.950;6.988;2022-07-29T01:53:43;19.20;99.90
10692;DHT22;5396;50.950;6.988;2022-07-29T01:56:12;19.10;99.90
10692;DHT22;5396;50.950;6.988;2022-07-29T01:58:40;19.10;99.90
10692;DHT22;5396;50.950;6.988;2022-07-29T02:01:08;19.10;99.90
10692;DHT22;5396;50.950;6.988;2022-07-29T02:03:36;19.10;99.90
10692;DHT22;5396;50.950;6.988;2022-07-29T02:06:04;19.00;99.90
10692;DHT22;5396;50.950;6.988;2022-07-29T02:08:32;19.00;99.90
10692;DHT22;5396;50.950;6.988;2022-07-29T02:10:59;19.00;99.90
10692;DHT22;5396;50.950;6.988;2022-07-29T02:13:26;19.00;99.90
10692;DHT22;5396;50.950;6.988;2022-07-29T02:15:53;19.00;99.90
10692;DHT22;5396;50.950;6.988;2022-07-29T02:18:20;18.90;99.90
10692;DHT22;5396;50.950;6.988;2022-07-29T02:20:50;18.90;99.90
10692;DHT22;5396;50.950;6.988;2022-07-29T02:23:20;18.90;99.90
10692;DHT22;5396;50.950;6.988;2022-07-29T02:25:49;18.90;99.90
10692;DHT22;5396;50.950;6.988;2022-07-29T02:28:16;18.80;99.90
10692;DHT22;5396;50.950;6.988;2022-07-29T02:30:43;18.80;99.90
10692;DHT22;5396;50.950;6.988;2022-07-29T02:33:13;18.80;99.90
10692;DHT22;5396;50.950;6.988;2022-07-29T02:35:40;18.70;99.90
10692;DHT22;5396;50.950;6.988;2022-07-29T02:38:08;18.70;99.90
10692;DHT22;5396;50.950;6.988;2022-07-29T02:40:53;18.70;99.90
10692;DHT22;5396;50.950;6.988;2022-07-29T02:43:21;18.60;99.90
10692;DHT22;5396;50.950;6.988;2022-07-29T02:45:51;18.50;99.90
10692;DHT22;5396;50.950;6.988;2022-07-29T02:48:24;18.40;99.90
10692;DHT22;5396;50.950;6.988;2022-07-29T02:50:58;18.40;99.90
10692;DHT22;5396;50.950;6.988;2022-07-29T02:53:26;18.40;99.90
10692;DHT22;5396;50.950;6.988;2022-07-29T02:56:03;18.40;99.90
10692;DHT22;5396;50.950;6.988;2022-07-29T02:58:32;18.40;99.90
10692;DHT22;5396;50.950;6.988;2022-07-29T03:01:02;18.50;99.90
10692;DHT22;5396;50.950;6.988;2022-07-29T03:03:32;18.50;99.90
10692;DHT22;5396;50.950;6.988;2022-07-29T03:06:01;18.50;99.90
10692;DHT22;5396;50.950;6.988;2022-07-29T03:08:27;18.60;99.90
10692;DHT22;5396;50.950;6.988;2022-07-29T03:10:53;18.80;99.90
10692;DHT22;5396;50.950;6.988;2022-07-29T03:13:19;18.90;99.90
10692;DHT22;5396;50.950;6.988;2022-07-29T03:15:45;19.10;99.90
10692;DHT22;5396;50.950;6.988;2022-07-29T03:18:12;19.20;99.90
10692;DHT22;5396;50.950;6.988;2022-07-29T03:20:38;19.20;99.90
10692;DHT22;5396;50.950;6.988;2022-07-29T03:23:04;19.20;99.90
10692;DHT22;5396;50.950;6.988;2022-07-29T03:25:30;19.10;99.90
10692;DHT22;5396;50.950;6.988;2022-07-29T03:27:56;18.90;99.90
10692;DHT22;5396;50.950;6.988;2022-07-29T03:30:22;18.80;99.90
10692;DHT22;5396;50.950;6.988;2022-07-29T03:32:49;18.70;99.90
10692;DHT22;5396;50.950;6.988;2022-07-29T03:35:15;18.60;99.90
10692;DHT22;5396;50.950;6.988;2022-07-29T03:37:42;18.60;99.90
10692;DHT22;5396;50.950;6.988;2022-07-29T03:40:11;18.50;99.90
10692;DHT22;5396;50.950;6.988;2022-07-29T03:42:39;18.50;99.90
10692;DHT22;5396;50.950;6.988;2022-07-29T03:45:07;18.50;99.90
10692;DHT22;5396;50.950;6.988;2022-07-29T03:47:36;18.50;99.90
10692;DHT22;5396;50.950;6.988;2022-07-29T03:50:07;18.40;99.90
10692;DHT22;5396;50.950;6.988;2022-07-29T03:52:34;18.50;99.90
10692;DHT22;5396;50.950;6.988;2022-07-29T03:55:01;18.40;99.90
10692;DHT22;5396;50.950;6.988;2022-07-29T03:57:30;18.40;99.90
10692;DHT22;5396;50.950;6.988;2022-07-29T03:59:57;18.40;99.90
10692;DHT22;5396;50.950;6.988;2022-07-29T04:02:23;18.40;99.90
10692;DHT22;5396;50.950;6.988;2022-07-29T04:04:50;18.40;99.90
10692;DHT22;5396;50.950;6.988;2022-07-29T04:07:16;18.40;99.90
10692;DHT22;5396;50.950;6.988;2022-07-29T04:09:42;18.40;99.90
10692;DHT22;5396;50.950;6.988;2022-07-29T04:12:08;18.40;99.90
10692;DHT22;5396;50.950;6.988;2022-07-29T04:14:34;18.40;99.90
10692;DHT22;5396;50.950;6.988;2022-07-29T04:17:01;18.50;99.90
10692;DHT22;5396;50.950;6.988;2022-07-29T04:19:27;18.50;99.90
10692;DHT22;5396;50.950;6.988;2022-07-29T04:21:53;18.60;99.90
10692;DHT22;5396;50.950;6.988;2022-07-29T04:24:18;18.60;99.90
10692;DHT22;5396;50.950;6.988;2022-07-29T04:26:46;18.60;99.90
10692;DHT22;5396;50.950;6.988;2022-07-29T04:29:11;18.60;99.90
10692;DHT22;5396;50.950;6.988;2022-07-29T04:31:37;18.60;99.90
10692;DHT22;5396;50.950;6.988;2022-07-29T04:34:03;18.60;99.90
10692;DHT22;5396;50.950;6.988;2022-07-29T04:36:28;18.60;99.90
10692;DHT22;5396;50.950;6.988;2022-07-29T04:38:54;18.70;99.90
10692;DHT22;5396;50.950;6.988;2022-07-29T04:41:20;18.60;99.90
10692;DHT22;5396;50.950;6.988;2022-07-29T04:43:45;18.60;99.90
10692;DHT22;5396;50.950;6.988;2022-07-29T04:46:11;18.60;99.90
10692;DHT22;5396;50.950;6.988;2022-07-29T04:48:37;18.60;99.90
10692;DHT22;5396;50.950;6.988;2022-07-29T04:51:02;18.60;99.90
10692;DHT22;5396;50.950;6.988;2022-07-29T04:53:28;18.60;99.90
10692;DHT22;5396;50.950;6.988;2022-07-29T04:55:54;18.60;99.90
10692;DHT22;5396;50.950;6.988;2022-07-29T04:58:19;18.60;99.90
10692;DHT22;5396;50.950;6.988;2022-07-29T05:00:45;18.60;99.90
10692;DHT22;5396;50.950;6.988;2022-07-29T05:03:10;18.60;99.90
10692;DHT22;5396;50.950;6.988;2022-07-29T05:05:36;18.60;99.90
10692;DHT22;5396;50.950;6.988;2022-07-29T05:08:02;18.60;99.90
10692;DHT22;5396;50.950;6.988;2022-07-29T05:10:28;18.70;99.90
10692;DHT22;5396;50.950;6.988;2022-07-29T05:12:54;18.70;99.90
10692;DHT22;5396;50.950;6.988;2022-07-29T05:15:19;18.70;99.90
10692;DHT22;5396;50.950;6.988;2022-07-29T05:17:45;18.70;99.90
10692;DHT22;5396;50.950;6.988;2022-07-29T05:20:10;18.70;99.90
10692;DHT22;5396;50.950;6.988;2022-07-29T05:22:36;18.70;99.90
10692;DHT22;5396;50.950;6.988;2022-07-29T05:25:02;18.70;99.90
10692;DHT22;5396;50.950;6.988;2022-07-29T05:27:28;18.70;99.90
10692;DHT22;5396;50.950;6.988;2022-07-29T05:29:54;18.70;99.90
10692;DHT22;5396;50.950;6.988;2022-07-29T05:32:20;18.80;99.90
10692;DHT22;5396;50.950;6.988;2022-07-29T05:34:45;18.80;99.90
10692;DHT22;5396;50.950;6.988;2022-07-29T05:37:11;18.80;99.90
10692;DHT22;5396;50.950;6.988;2022-07-29T05:39:38;18.80;99.90
10692;DHT22;5396;50.950;6.988;2022-07-29T05:42:08;18.80;99.90
10692;DHT22;5396;50.950;6.988;2022-07-29T05:44:38;18.90;99.90
10692;DHT22;5396;50.950;6.988;2022-07-29T05:47:03;18.90;99.90
10692;DHT22;5396;50.950;6.988;2022-07-29T05:49:29;18.90;99.90
10692;DHT22;5396;50.950;6.988;2022-07-29T05:51:55;19.00;99.90
10692;DHT22;5396;50.950;6.988;2022-07-29T05:54:20;19.00;99.90
10692;DHT22;5396;50.950;6.988;2022-07-29T05:56:46;19.00;99.90
10692;DHT22;5396;50.950;6.988;2022-07-29T05:59:12;19.10;99.90
10692;DHT22;5396;50.950;6.988;2022-07-29T06:01:37;19.20;99.90
10692;DHT22;5396;50.950;6.988;2022-07-29T06:04:05;19.20;99.90
10692;DHT22;5396;50.950;6.988;2022-07-29T06:06:32;19.30;99.90
10692;DHT22;5396;50.950;6.988;2022-07-29T06:08:57;19.40;99.90
10692;DHT22;5396;50.950;6.988;2022-07-29T06:11:23;19.40;99.90
10692;DHT22;5396;50.950;6.988;2022-07-29T06:13:48;19.50;99.90
10692;DHT22;5396;50.950;6.988;2022-07-29T06:16:14;19.60;99.90
10692;DHT22;5396;50.950;6.988;2022-07-29T06:18:42;19.60;99.90
10692;DHT22;5396;50.950;6.988;2022-07-29T06:21:09;19.70;99.90
10692;DHT22;5396;50.950;6.988;2022-07-29T06:23:38;19.70;99.90
10692;DHT22;5396;50.950;6.988;2022-07-29T06:26:05;19.80;99.90
10692;DHT22;5396;50.950;6.988;2022-07-29T06:28:31;19.80;99.90
10692;DHT22;5396;50.950;6.988;2022-07-29T06:30:57;19.70;99.90
10692;DHT22;5396;50.950;6.988;2022-07-29T06:33:22;19.60;99.90
10692;DHT22;5396;50.950;6.988;2022-07-29T06:35:49;19.40;99.90
10692;DHT22;5396;50.950;6.988;2022-07-29T06:38:15;19.40;99.90
10692;DHT22;5396;50.950;6.988;2022-07-29T06:40:44;19.40;99.90
10692;DHT22;5396;50.950;6.988;2022-07-29T06:43:26;19.30;99.90
10692;DHT22;5396;50.950;6.988;2022-07-29T06:45:52;19.40;99.90
10692;DHT22;5396;50.950;6.988;2022-07-29T06:48:18;19.30;99.90
10692;DHT22;5396;50.950;6.988;2022-07-29T06:50:43;19.40;99.90
10692;DHT22;5396;50.950;6.988;2022-07-29T06:53:09;19.40;99.90
10692;DHT22;5396;50.950;6.988;2022-07-29T06:55:35;19.40;99.90
10692;DHT22;5396;50.950;6.988;2022-07-29T06:58:02;19.40;99.90
10692;DHT22;5396;50.950;6.988;2022-07-29T07:00:28;19.40;99.90
10692;DHT22;5396;50.950;6.988;2022-07-29T07:02:53;19.40;99.90
10692;DHT22;5396;50.950;6.988;2022-07-29T07:05:19;19.50;99.90
10692;DHT22;5396;50.950;6.988;2022-07-29T07:07:45;19.50;99.90
10692;DHT22;5396;50.950;6.988;2022-07-29T07:10:10;19.50;99.90
10692;DHT22;5396;50.950;6.988;2022-07-29T07:12:36;19.60;99.90
10692;DHT22;5396;50.950;6.988;2022-07-29T07:15:02;19.70;99.90
10692;DHT22;5396;50.950;6.988;2022-07-29T07:17:28;19.70;99.90
10692;DHT22;5396;50.950;6.988;2022-07-29T07:19:53;19.80;99.90
10692;DHT22;5396;50.950;6.988;2022-07-29T07:22:19;19.90;99.90
10692;DHT22;5396;50.950;6.988;2022-07-29T07:24:45;19.90;99.90
10692;DHT22;5396;50.950;6.988;2022-07-29T07:27:10;20.00;99.90
10692;DHT22;5396;50.950;6.988;2022-07-29T07:29:36;20.10;99.90
10692;DHT22;5396;50.950;6.988;2022-07-29T07:32:02;20.20;99.90
10692;DHT22;5396;50.950;6.988;2022-07-29T07:34:27;20.30;99.90
10692;DHT22;5396;50.950;6.988;2022-07-29T07:36:53;20.40;99.90
10692;DHT22;5396;50.950;6.988;2022-07-29T07:39:19;20.40;99.90
10692;DHT22;5396;50.950;6.988;2022-07-29T07:41:44;20.40;99.90
10692;DHT22;5396;50.950;6.988;2022-07-29T07:44:10;20.40;99.90
10692;DHT22;5396;50.950;6.988;2022-07-29T07:46:36;20.40;99.90
10692;DHT22;5396;50.950;6.988;2022-07-29T07:49:01;20.30;99.90
10692;DHT22;5396;50.950;6.988;2022-07-29T07:51:27;20.30;99.90
10692;DHT22;5396;50.950;6.988;2022-07-29T07:53:52;20.20;99.90
10692;DHT22;5396;50.950;6.988;2022-07-29T07:56:18;20.10;99.90
10692;DHT22;5396;50.950;6.988;2022-07-29T07:58:44;20.10;99.90
10692;DHT22;5396;50.950;6.988;2022-07-29T08:01:09;20.00;99.90
10692;DHT22;5396;50.950;6.988;2022-07-29T08:03:36;19.80;99.90
10692;DHT22;5396;50.950;6.988;2022-07-29T08:06:02;19.70;99.90
10692;DHT22;5396;50.950;6.988;2022-07-29T08:08:28;19.70;99.90
10692;DHT22;5396;50.950;6.988;2022-07-29T08:10:54;19.70;99.90
10692;DHT22;5396;50.950;6.988;2022-07-29T08:13:25;19.80;99.90
10692;DHT22;5396;50.950;6.988;2022-07-29T08:15:53;19.80;99.90
10692;DHT22;5396;50.950;6.988;2022-07-29T08:18:36;19.80;99.90
10692;DHT22;5396;50.950;6.988;2022-07-29T08:21:02;19.80;99.90
10692;DHT22;5396;50.950;6.988;2022-07-29T08:23:28;19.80;99.90
10692;DHT22;5396;50.950;6.988;2022-07-29T08:26:00;19.80;99.90
10692;DHT22;5396;50.950;6.988;2022-07-29T08:28:26;19.90;99.90
10692;DHT22;5396;50.950;6.988;2022-07-29T08:30:52;20.00;99.90
10692;DHT22;5396;50.950;6.988;2022-07-29T08:33:17;20.00;99.90
10692;DHT22;5396;50.950;6.988;2022-07-29T08:35:43;20.00;99.90
10692;DHT22;5396;50.950;6.988;2022-07-29T08:38:09;20.00;99.90
10692;DHT22;5396;50.950;6.988;2022-07-29T08:40:35;20.10;99.90
10692;DHT22;5396;50.950;6.988;2022-07-29T08:43:05;20.20;99.90
10692;DHT22;5396;50.950;6.988;2022-07-29T08:45:43;20.30;99.90
10692;DHT22;5396;50.950;6.988;2022-07-29T08:48:14;20.20;99.90
10692;DHT22;5396;50.950;6.988;2022-07-29T08:50:41;20.30;99.90
10692;DHT22;5396;50.950;6.988;2022-07-29T08:53:11;20.40;99.90
10692;DHT22;5396;50.950;6.988;2022-07-29T08:55:40;20.40;99.90
10692;DHT22;5396;50.950;6.988;2022-07-29T08:58:07;20.60;99.90
10692;DHT22;5396;50.950;6.988;2022-07-29T09:00:35;20.70;99.90
10692;DHT22;5396;50.950;6.988;2022-07-29T09:03:02;20.90;99.90
10692;DHT22;5396;50.950;6.988;2022-07-29T09:05:30;21.00;99.90
10692;DHT22;5396;50.950;6.988;2022-07-29T09:07:56;21.00;99.90
10692;DHT22;5396;50.950;6.988;2022-07-29T09:10:24;20.90;99.90
10692;DHT22;5396;50.950;6.988;2022-07-29T09:12:49;20.80;99.90
10692;DHT22;5396;50.950;6.988;2022-07-29T09:15:15;20.80;99.90
10692;DHT22;5396;50.950;6.988;2022-07-29T09:17:41;20.80;99.90
10692;DHT22;5396;50.950;6.988;2022-07-29T09:20:16;20.80;99.90
10692;DHT22;5396;50.950;6.988;2022-07-29T09:22:42;20.80;99.90
10692;DHT22;5396;50.950;6.988;2022-07-29T09:25:08;20.70;99.90
10692;DHT22;5396;50.950;6.988;2022-07-29T09:27:33;20.50;99.90
10692;DHT22;5396;50.950;6.988;2022-07-29T09:30:09;20.50;99.90
10692;DHT22;5396;50.950;6.988;2022-07-29T09:32:55;20.40;99.90
10692;DHT22;5396;50.950;6.988;2022-07-29T09:35:23;20.50;99.90
10692;DHT22;5396;50.950;6.988;2022-07-29T09:37:49;20.50;99.90
10692;DHT22;5396;50.950;6.988;2022-07-29T09:40:18;20.50;99.90
10692;DHT22;5396;50.950;6.988;2022-07-29T09:42:45;20.60;99.90
10692;DHT22;5396;50.950;6.988;2022-07-29T09:45:12;20.70;99.90
10692;DHT22;5396;50.950;6.988;2022-07-29T09:47:46;20.90;99.90
10692;DHT22;5396;50.950;6.988;2022-07-29T09:50:14;21.10;99.90
10692;DHT22;5396;50.950;6.988;2022-07-29T09:53:06;21.20;99.90
10692;DHT22;5396;50.950;6.988;2022-07-29T09:55:46;21.10;99.90
10692;DHT22;5396;50.950;6.988;2022-07-29T09:58:17;21.00;99.90
10692;DHT22;5396;50.950;6.988;2022-07-29T10:00:44;21.00;99.90
10692;DHT22;5396;50.950;6.988;2022-07-29T10:03:11;20.90;99.90
10692;DHT22;5396;50.950;6.988;2022-07-29T10:05:37;20.90;99.90
10692;DHT22;5396;50.950;6.988;2022-07-29T10:08:04;20.90;99.90
10692;DHT22;5396;50.950;6.988;2022-07-29T10:10:36;20.90;99.90
10692;DHT22;5396;50.950;6.988;2022-07-29T10:13:07;20.90;99.90
10692;DHT22;5396;50.950;6.988;2022-07-29T10:15:36;20.90;99.90
10692;DHT22;5396;50.950;6.988;2022-07-29T10:18:07;20.90;99.90
10692;DHT22;5396;50.950;6.988;2022-07-29T10:20:33;21.10;99.90
10692;DHT22;5396;50.950;6.988;2022-07-29T10:22:59;21.20;99.90
10692;DHT22;5396;50.950;6.988;2022-07-29T10:25:26;21.10;99.90
10692;DHT22;5396;50.950;6.988;2022-07-29T10:27:52;21.10;99.90
10692;DHT22;5396;50.950;6.988;2022-07-29T10:30:20;21.10;99.90
10692;DHT22;5396;50.950;6.988;2022-07-29T10:39:09;21.20;99.90
10692;DHT22;5396;50.950;6.988;2022-07-29T10:44:18;21.60;99.90
10692;DHT22;5396;50.950;6.988;2022-07-29T10:46:46;21.90;99.90
10692;DHT22;5396;50.950;6.988;2022-07-29T10:49:14;22.20;99.90
10692;DHT22;5396;50.950;6.988;2022-07-29T10:51:53;22.30;99.90
10692;DHT22;5396;50.950;6.988;2022-07-29T10:57:18;22.20;99.90
10692;DHT22;5396;50.950;6.988;2022-07-29T10:59:50;22.20;99.90
10692;DHT22;5396;50.950;6.988;2022-07-29T11:02:41;22.20;99.90
10692;DHT22;5396;50.950;6.988;2022-07-29T11:05:16;22.40;99.90
10692;DHT22;5396;50.950;6.988;2022-07-29T11:10:38;23.00;99.90
10692;DHT22;5396;50.950;6.988;2022-07-29T11:13:04;23.10;99.90
10692;DHT22;5396;50.950;6.988;2022-07-29T11:15:56;23.40;99.90
10692;DHT22;5396;50.950;6.988;2022-07-29T11:18:22;23.70;99.90
10692;DHT22;5396;50.950;6.988;2022-07-29T11:20:51;23.50;99.90
10692;DHT22;5396;50.950;6.988;2022-07-29T11:23:32;23.40;99.90
10692;DHT22;5396;50.950;6.988;2022-07-29T11:26:13;23.40;99.90
10692;DHT22;5396;50.950;6.988;2022-07-29T11:29:18;23.50;99.90
10692;DHT22;5396;50.950;6.988;2022-07-29T11:31:49;23.60;99.90
10692;DHT22;5396;50.950;6.988;2022-07-29T11:40:08;24.10;99.90
10692;DHT22;5396;50.950;6.988;2022-07-29T11:45:14;24.30;99.90
10692;DHT22;5396;50.950;6.988;2022-07-29T11:50:15;24.80;99.90
10692;DHT22;5396;50.950;6.988;2022-07-29T11:52:42;25.00;99.90
10692;DHT22;5396;50.950;6.988;2022-07-29T11:55:11;25.10;99.90
10692;DHT22;5396;50.950;6.988;2022-07-29T11:57:50;24.90;99.90
10692;DHT22;5396;50.950;6.988;2022-07-29T12:02:51;24.60;99.90
10692;DHT22;5396;50.950;6.988;2022-07-29T12:05:18;24.70;99.90
10692;DHT22;5396;50.950;6.988;2022-07-29T12:07:44;24.80;99.90
10692;DHT22;5396;50.950;6.988;2022-07-29T12:10:09;24.90;99.90
10692;DHT22;5396;50.950;6.988;2022-07-29T12:12:36;24.80;99.90
10692;DHT22;5396;50.950;6.988;2022-07-29T12:15:18;24.90;99.90
10692;DHT22;5396;50.950;6.988;2022-07-29T12:17:46;25.10;99.90
10692;DHT22;5396;50.950;6.988;2022-07-29T12:20:13;25.00;99.90
10692;DHT22;5396;50.950;6.988;2022-07-29T12:22:40;24.90;99.90
10692;DHT22;5396;50.950;6.988;2022-07-29T12:25:09;24.90;99.90
10692;DHT22;5396;50.950;6.988;2022-07-29T12:27:36;24.90;99.90
10692;DHT22;5396;50.950;6.988;2022-07-29T12:30:09;25.00;99.90
10692;DHT22;5396;50.950;6.988;2022-07-29T12:32:43;25.20;99.90
10692;DHT22;5396;50.950;6.988;2022-07-29T12:35:17;25.40;99.90
10692;DHT22;5396;50.950;6.988;2022-07-29T12:37:45;25.60;99.90
10692;DHT22;5396;50.950;6.988;2022-07-29T12:40:14;25.70;99.90
10692;DHT22;5396;50.950;6.988;2022-07-29T12:42:40;25.80;99.90
10692;DHT22;5396;50.950;6.988;2022-07-29T12:45:07;25.80;99.90
10692;DHT22;5396;50.950;6.988;2022-07-29T12:47:33;25.80;99.90
10692;DHT22;5396;50.950;6.988;2022-07-29T12:50:15;26.10;99.90
10692;DHT22;5396;50.950;6.988;2022-07-29T12:52:44;27.40;99.90
10692;DHT22;5396;50.950;6.988;2022-07-29T12:55:10;28.60;99.90
10692;DHT22;5396;50.950;6.988;2022-07-29T12:57:50;29.30;99.90
10692;DHT22;5396;50.950;6.988;2022-07-29T13:00:22;29.50;99.90
10692;DHT22;5396;50.950;6.988;2022-07-29T13:02:54;29.80;99.90
10692;DHT22;5396;50.950;6.988;2022-07-29T13:05:21;30.30;99.90
10692;DHT22;5396;50.950;6.988;2022-07-29T13:07:47;29.80;99.90
10692;DHT22;5396;50.950;6.988;2022-07-29T13:10:20;29.60;99.90
10692;DHT22;5396;50.950;6.988;2022-07-29T13:13:05;29.40;99.90
10692;DHT22;5396;50.950;6.988;2022-07-29T13:15:33;29.60;99.90
10692;DHT22;5396;50.950;6.988;2022-07-29T13:17:59;30.30;99.90
10692;DHT22;5396;50.950;6.988;2022-07-29T13:20:26;31.20;99.90
10692;DHT22;5396;50.950;6.988;2022-07-29T13:22:56;31.50;99.90
10692;DHT22;5396;50.950;6.988;2022-07-29T13:25:39;31.50;99.90
10692;DHT22;5396;50.950;6.988;2022-07-29T13:28:06;31.70;99.90
10692;DHT22;5396;50.950;6.988;2022-07-29T13:30:31;31.20;99.90
10692;DHT22;5396;50.950;6.988;2022-07-29T13:32:57;30.60;99.90
10692;DHT22;5396;50.950;6.988;2022-07-29T13:35:22;30.60;99.90
10692;DHT22;5396;50.950;6.988;2022-07-29T13:37:48;30.50;99.90
10692;DHT22;5396;50.950;6.988;2022-07-29T13:40:14;30.80;99.90
10692;DHT22;5396;50.950;6.988;2022-07-29T13:42:40;30.50;99.90
10692;DHT22;5396;50.950;6.988;2022-07-29T13:45:06;29.90;99.90
10692;DHT22;5396;50.950;6.988;2022-07-29T13:47:32;29.20;99.90
10692;DHT22;5396;50.950;6.988;2022-07-29T13:49:58;29.40;99.90
10692;DHT22;5396;50.950;6.988;2022-07-29T13:52:24;30.00;99.90
10692;DHT22;5396;50.950;6.988;2022-07-29T13:54:50;30.50;99.90
10692;DHT22;5396;50.950;6.988;2022-07-29T13:57:16;31.50;99.90
10692;DHT22;5396;50.950;6.988;2022-07-29T13:59:42;32.60;99.90
10692;DHT22;5396;50.950;6.988;2022-07-29T14:02:09;33.20;99.90
10692;DHT22;5396;50.950;6.988;2022-07-29T14:04:35;33.80;99.90
10692;DHT22;5396;50.950;6.988;2022-07-29T14:07:01;34.00;99.90
10692;DHT22;5396;50.950;6.988;2022-07-29T14:09:27;34.30;99.90
10692;DHT22;5396;50.950;6.988;2022-07-29T14:11:52;34.40;99.90
10692;DHT22;5396;50.950;6.988;2022-07-29T14:14:19;34.20;99.90
10692;DHT22;5396;50.950;6.988;2022-07-29T14:16:45;33.50;99.90
10692;DHT22;5396;50.950;6.988;2022-07-29T14:19:11;33.70;99.90
10692;DHT22;5396;50.950;6.988;2022-07-29T14:21:37;34.00;99.90
10692;DHT22;5396;50.950;6.988;2022-07-29T14:24:03;34.20;99.90
10692;DHT22;5396;50.950;6.988;2022-07-29T14:26:29;34.40;99.90
10692;DHT22;5396;50.950;6.988;2022-07-29T14:28:55;34.30;99.90
10692;DHT22;5396;50.950;6.988;2022-07-29T14:31:20;33.60;99.90
10692;DHT22;5396;50.950;6.988;2022-07-29T14:33:46;33.10;99.90
10692;DHT22;5396;50.950;6.988;2022-07-29T14:36:12;32.40;99.90
10692;DHT22;5396;50.950;6.988;2022-07-29T14:38:37;31.60;99.90
10692;DHT22;5396;50.950;6.988;2022-07-29T14:41:03;31.60;99.90
10692;DHT22;5396;50.950;6.988;2022-07-29T14:43:29;31.50;99.90
10692;DHT22;5396;50.950;6.988;2022-07-29T14:45:55;31.60;99.90
10692;DHT22;5396;50.950;6.988;2022-07-29T14:48:20;31.40;99.90
10692;DHT22;5396;50.950;6.988;2022-07-29T14:50:47;31.40;99.90
10692;DHT22;5396;50.950;6.988;2022-07-29T14:53:13;31.60;99.90
10692;DHT22;5396;50.950;6.988;2022-07-29T14:55:39;31.70;99.90
10692;DHT22;5396;50.950;6.988;2022-07-29T14:58:06;31.70;99.90
10692;DHT22;5396;50.950;6.988;2022-07-29T15:00:32;32.00;99.90
10692;DHT22;5396;50.950;6.988;2022-07-29T15:02:59;31.80;99.90
10692;DHT22;5396;50.950;6.988;2022-07-29T15:05:25;31.40;99.90
10692;DHT22;5396;50.950;6.988;2022-07-29T15:07:51;30.60;99.90
10692;DHT22;5396;50.950;6.988;2022-07-29T15:10:17;29.80;99.90
10692;DHT22;5396;50.950;6.988;2022-07-29T15:12:43;29.30;99.90
10692;DHT22;5396;50.950;6.988;2022-07-29T15:15:09;29.00;99.90
10692;DHT22;5396;50.950;6.988;2022-07-29T15:17:34;28.20;99.90
10692;DHT22;5396;50.950;6.988;2022-07-29T15:20:00;27.70;99.90
10692;DHT22;5396;50.950;6.988;2022-07-29T15:22:26;27.40;99.90
10692;DHT22;5396;50.950;6.988;2022-07-29T15:24:51;27.10;99.90
10692;DHT22;5396;50.950;6.988;2022-07-29T15:27:17;26.80;99.90
10692;DHT22;5396;50.950;6.988;2022-07-29T15:29:43;26.70;99.90
10692;DHT22;5396;50.950;6.988;2022-07-29T15:32:09;26.70;99.90
10692;DHT22;5396;50.950;6.988;2022-07-29T15:34:35;26.60;99.90
10692;DHT22;5396;50.950;6.988;2022-07-29T15:37:01;26.60;99.90
10692;DHT22;5396;50.950;6.988;2022-07-29T15:39:27;26.80;99.90
10692;DHT22;5396;50.950;6.988;2022-07-29T15:41:52;27.00;99.90
10692;DHT22;5396;50.950;6.988;2022-07-29T15:44:19;27.20;99.90
10692;DHT22;5396;50.950;6.988;2022-07-29T15:46:45;27.30;99.90
10692;DHT22;5396;50.950;6.988;2022-07-29T15:49:33;27.30;99.90
10692;DHT22;5396;50.950;6.988;2022-07-29T15:52:00;27.30;99.90
10692;DHT22;5396;50.950;6.988;2022-07-29T15:54:27;27.30;99.90
10692;DHT22;5396;50.950;6.988;2022-07-29T15:56:53;27.10;99.90
10692;DHT22;5396;50.950;6.988;2022-07-29T15:59:19;26.70;99.90
10692;DHT22;5396;50.950;6.988;2022-07-29T16:01:45;26.60;99.90
10692;DHT22;5396;50.950;6.988;2022-07-29T16:04:10;26.50;99.90
10692;DHT22;5396;50.950;6.988;2022-07-29T16:06:36;26.50;99.90
10692;DHT22;5396;50.950;6.988;2022-07-29T16:09:02;26.50;99.90
10692;DHT22;5396;50.950;6.988;2022-07-29T16:11:28;26.30;99.90
10692;DHT22;5396;50.950;6.988;2022-07-29T16:13:53;26.20;99.90
10692;DHT22;5396;50.950;6.988;2022-07-29T16:16:19;26.10;99.90
10692;DHT22;5396;50.950;6.988;2022-07-29T16:18:45;26.10;99.90
10692;DHT22;5396;50.950;6.988;2022-07-29T16:21:11;25.90;99.90
10692;DHT22;5396;50.950;6.988;2022-07-29T16:23:38;25.70;99.90